Lulu Pass Weather Station

This weather station provides temperature, relative humidity (RH), wind speed, gust or max wind speed, and wind direction at 10014ft near Lulu Pass at the head of Fisher Creek. This data can be used with temperature and precipitation data from the Fisher Creek SNOTEL site.

This weather station was purchased by the Friends of the Avalanche Center.

If the data has not been updated recently you can view it directly on datagarrison.com

Elevation
10014ft
Jump to table bottom
Date Time Temperature
deg F
RH, % Wind Speed Wind Gust Wind Direction
01/29/23 01:00 -16.1 83 7 11 SE - 121
01/29/23 00:00 -18.0 82 8 14 SE - 126
01/28/23 23:00 -17.9 82 9 16 SE - 138
01/28/23 22:00 -17.9 82 11 18 SE - 136
01/28/23 21:00 -17.1 83 8 16 SE - 136
01/28/23 20:00 -14.8 83 5 13 E - 112
01/28/23 19:00 -15.5 83 7 15 E - 110
01/28/23 18:00 -13.5 84 4 10 E - 95
01/28/23 17:00 -11.7 84 8 16 SE - 147
01/28/23 16:00 -9.1 85 4 15 E - 91
01/28/23 15:00 -3.5 86 4 14 SE - 142
01/28/23 14:00 -3.4 87 3 10 N - 351
01/28/23 13:00 -2.0 86 4 17 N - 15
01/28/23 12:00 -5.7 85 5 16 NE - 58
01/28/23 11:00 -7.9 85 10 20 NE - 51
01/28/23 10:00 -7.4 86 12 21 NE - 39
01/28/23 09:00 -6.1 86 15 26 NE - 45
01/28/23 08:00 -4.6 87 18 28 NE - 45
01/28/23 07:00 -2.6 87 17 25 NE - 45
01/28/23 06:00 -0.5 88 11 21 NE - 51
01/28/23 05:00 1.6 89 4 17 NE - 42
01/28/23 04:00 3.6 89 2 5 N - 357
01/28/23 03:00 5.0 90 2 7 E - 79
01/28/23 02:00 6.1 90 1 5 NE - 29
01/28/23 01:00 6.2 90 3 5 N - 7
01/28/23 00:00 7.0 90 3 5 N - 6
01/27/23 23:00 7.1 90 2 6 NE - 27
01/27/23 22:00 7.6 90 1 4 E - 93
01/27/23 21:00 8.2 90 0 2 NW - 306
01/27/23 20:00 8.9 91 3 6 NW - 320
01/27/23 19:00 9.8 91 7 15 NW - 319
01/27/23 18:00 10.3 91 13 20 NW - 319
01/27/23 17:00 12.1 92 10 13 NW - 299
01/27/23 16:00 12.3 92 10 15 NW - 303
01/27/23 15:00 12.8 92 10 15 NW - 298
01/27/23 14:00 13.1 92 10 16 W - 292
01/27/23 13:00 14.2 92 6 18 W - 253
01/27/23 12:00 15.0 92 5 13 W - 264
01/27/23 11:00 12.6 91 9 16 W - 292
01/27/23 10:00 11.2 91 7 15 W - 286
01/27/23 09:00 10.0 91 6 17 W - 275
01/27/23 08:00 9.3 91 5 14 SW - 240
01/27/23 07:00 9.0 91 5 13 W - 261
01/27/23 06:00 8.6 90 5 13 W - 284
01/27/23 05:00 8.3 90 6 14 W - 270
01/27/23 04:00 8.1 90 6 14 SW - 241
01/27/23 03:00 8.4 90 7 15 SW - 219
01/27/23 02:00 8.4 90 7 13 SW - 213
01/27/23 01:00 8.4 90 7 14 SW - 230
01/27/23 00:00 7.8 90 9 16 NW - 295